KNUW Airport Information

Runway Information
Runway 07 Length 8000 ft width 200 ft
Elevation 18 ft Threshold 0 ft Heading 87
Runway 25 Length 8000 ft Width 200 ft
Elevation 23 ft Threshold 0 ft Heading 267
Runway 14 Length 8001 ft width 200 ft
Elevation 39 ft Threshold 0 ft Heading 155
Runway 32 Length 8001 ft Width 200 ft
Elevation 47 ft Threshold 0 ft Heading 335
Airport Frequencies
Type A/D Name APP/DEP Frequency 118.2 MHZ
Type ATIS Name ATIS Frequency 134.15 MHZ
Type CLD Name CLNC DEL Frequency 124.15 MHZ
Type GND Name GND Frequency 121.75 MHZ
Type OPS Name BASE OPS Frequency 35.01 MHZ
Type PMSV Name PMSV METRO Frequency 34.34 MHZ
Type TWR Name TWR Frequency 127.9 MHZ
Airport Navaids
Airport Weather Information & NOTAM
ADDS - METARS form results

(1131 UTC 21 April 2018)
 
METAR text: KNUW 211056Z 25005KT 10SM SCT014 BKN026 OVC040 10/07 A3023 RMK AO2 SLP235 T01000072 $
Conditions at: KNUW (WHIDBEY IS. NAS , WA, US) observed 1056 UTC 21 April 2018
Temperature: 10.0°C (50°F)
Dewpoint: 7.2°C (45°F) [RH = 83%]
Pressure (altimeter): 30.23 inches Hg (1023.8 mb)
[Sea-level pressure: 1023.5 mb]
Winds: from the WSW (250 degrees) at 6 MPH (5 knots; 2.6 m/s)
Visibility: 10 or more miles (16+ km)
Ceiling: 2600 feet AGL
Clouds: scattered clouds at 1400 feet AGL
broken clouds at 2600 feet AGL
overcast cloud deck at 4000 feet AGL
Weather:
SOME DATA ABOVE MAY BE INACCURATE!!!
"$" is an indication the sensor requires maintenance